sensor_id;sensor_type;location;lat;lon;timestamp;P1;durP1;ratioP1;P2;durP2;ratioP2
9986;SDS011;5033;46.310;11.214;2022-12-17T00:00:57;5.28;;;4.88;;
9986;SDS011;5033;46.310;11.214;2022-12-17T00:03:44;5.57;;;5.22;;
9986;SDS011;5033;46.310;11.214;2022-12-17T00:06:28;5.85;;;5.45;;
9986;SDS011;5033;46.310;11.214;2022-12-17T00:09:13;5.70;;;5.30;;
9986;SDS011;5033;46.310;11.214;2022-12-17T00:11:57;5.03;;;4.72;;
9986;SDS011;5033;46.310;11.214;2022-12-17T00:14:42;5.35;;;5.05;;
9986;SDS011;5033;46.310;11.214;2022-12-17T00:17:27;4.95;;;4.60;;
9986;SDS011;5033;46.310;11.214;2022-12-17T00:20:14;5.53;;;5.13;;
9986;SDS011;5033;46.310;11.214;2022-12-17T00:22:58;5.18;;;4.88;;
9986;SDS011;5033;46.310;11.214;2022-12-17T00:25:48;5.10;;;4.80;;
9986;SDS011;5033;46.310;11.214;2022-12-17T00:28:33;5.20;;;4.90;;
9986;SDS011;5033;46.310;11.214;2022-12-17T00:31:18;5.78;;;5.38;;
9986;SDS011;5033;46.310;11.214;2022-12-17T00:34:02;6.13;;;5.72;;
9986;SDS011;5033;46.310;11.214;2022-12-17T00:36:50;6.50;;;6.00;;
9986;SDS011;5033;46.310;11.214;2022-12-17T00:39:35;7.05;;;6.55;;
9986;SDS011;5033;46.310;11.214;2022-12-17T00:42:19;6.60;;;6.10;;
9986;SDS011;5033;46.310;11.214;2022-12-17T00:45:04;6.45;;;6.05;;
9986;SDS011;5033;46.310;11.214;2022-12-17T00:47:49;6.15;;;5.70;;
9986;SDS011;5033;46.310;11.214;2022-12-17T00:50:34;5.88;;;5.47;;
9986;SDS011;5033;46.310;11.214;2022-12-17T00:53:20;6.00;;;5.60;;
9986;SDS011;5033;46.310;11.214;2022-12-17T00:56:05;5.60;;;5.20;;
9986;SDS011;5033;46.310;11.214;2022-12-17T00:58:49;5.80;;;5.40;;
9986;SDS011;5033;46.310;11.214;2022-12-17T01:01:42;5.38;;;4.97;;
9986;SDS011;5033;46.310;11.214;2022-12-17T01:04:27;5.75;;;5.35;;
9986;SDS011;5033;46.310;11.214;2022-12-17T01:07:11;6.15;;;5.72;;
9986;SDS011;5033;46.310;11.214;2022-12-17T01:09:57;5.18;;;4.85;;
9986;SDS011;5033;46.310;11.214;2022-12-17T01:12:41;4.90;;;4.60;;
9986;SDS011;5033;46.310;11.214;2022-12-17T01:15:28;6.93;;;6.43;;
9986;SDS011;5033;46.310;11.214;2022-12-17T01:18:16;6.35;;;5.85;;
9986;SDS011;5033;46.310;11.214;2022-12-17T01:21:01;5.72;;;5.32;;
9986;SDS011;5033;46.310;11.214;2022-12-17T01:23:45;5.50;;;5.10;;
9986;SDS011;5033;46.310;11.214;2022-12-17T01:26:33;6.20;;;5.70;;
9986;SDS011;5033;46.310;11.214;2022-12-17T01:29:17;6.75;;;6.25;;
9986;SDS011;5033;46.310;11.214;2022-12-17T01:32:01;6.22;;;5.82;;
9986;SDS011;5033;46.310;11.214;2022-12-17T01:34:46;6.15;;;5.75;;
9986;SDS011;5033;46.310;11.214;2022-12-17T01:37:27;6.22;;;5.72;;
9986;SDS011;5033;46.310;11.214;2022-12-17T01:40:12;7.00;;;6.50;;
9986;SDS011;5033;46.310;11.214;2022-12-17T01:42:58;6.60;;;6.10;;
9986;SDS011;5033;46.310;11.214;2022-12-17T01:45:42;5.95;;;5.50;;
9986;SDS011;5033;46.310;11.214;2022-12-17T01:48:32;9.00;;;8.30;;
9986;SDS011;5033;46.310;11.214;2022-12-17T01:51:21;7.68;;;6.97;;
9986;SDS011;5033;46.310;11.214;2022-12-17T01:54:07;7.68;;;7.07;;
9986;SDS011;5033;46.310;11.214;2022-12-17T01:56:53;7.85;;;7.25;;
9986;SDS011;5033;46.310;11.214;2022-12-17T01:59:40;7.72;;;7.13;;
9986;SDS011;5033;46.310;11.214;2022-12-17T02:02:29;7.60;;;7.00;;
9986;SDS011;5033;46.310;11.214;2022-12-17T02:05:13;8.40;;;7.70;;
9986;SDS011;5033;46.310;11.214;2022-12-17T02:08:08;8.30;;;7.60;;
9986;SDS011;5033;46.310;11.214;2022-12-17T02:11:02;8.80;;;8.00;;
9986;SDS011;5033;46.310;11.214;2022-12-17T02:13:55;8.25;;;7.65;;
9986;SDS011;5033;46.310;11.214;2022-12-17T02:16:48;8.05;;;7.40;;
9986;SDS011;5033;46.310;11.214;2022-12-17T02:19:38;7.10;;;6.50;;
9986;SDS011;5033;46.310;11.214;2022-12-17T02:22:31;7.57;;;6.97;;
9986;SDS011;5033;46.310;11.214;2022-12-17T02:25:28;6.10;;;5.70;;
9986;SDS011;5033;46.310;11.214;2022-12-17T02:28:22;5.70;;;5.30;;
9986;SDS011;5033;46.310;11.214;2022-12-17T02:31:08;5.90;;;5.50;;
9986;SDS011;5033;46.310;11.214;2022-12-17T02:33:53;5.53;;;5.13;;
9986;SDS011;5033;46.310;11.214;2022-12-17T02:36:41;6.03;;;5.63;;
9986;SDS011;5033;46.310;11.214;2022-12-17T02:39:26;7.43;;;6.82;;
9986;SDS011;5033;46.310;11.214;2022-12-17T02:42:11;5.63;;;5.22;;
9986;SDS011;5033;46.310;11.214;2022-12-17T02:44:58;6.75;;;6.32;;
9986;SDS011;5033;46.310;11.214;2022-12-17T02:47:43;6.63;;;6.13;;
9986;SDS011;5033;46.310;11.214;2022-12-17T02:50:27;6.93;;;6.43;;
9986;SDS011;5033;46.310;11.214;2022-12-17T02:53:12;7.13;;;6.63;;
9986;SDS011;5033;46.310;11.214;2022-12-17T02:55:57;6.68;;;6.18;;
9986;SDS011;5033;46.310;11.214;2022-12-17T02:58:41;7.15;;;6.57;;
9986;SDS011;5033;46.310;11.214;2022-12-17T03:01:28;6.68;;;6.20;;
9986;SDS011;5033;46.310;11.214;2022-12-17T03:04:12;5.93;;;5.53;;
9986;SDS011;5033;46.310;11.214;2022-12-17T03:06:56;5.93;;;5.53;;
9986;SDS011;5033;46.310;11.214;2022-12-17T03:09:41;6.53;;;6.03;;
9986;SDS011;5033;46.310;11.214;2022-12-17T03:12:26;5.88;;;5.50;;
9986;SDS011;5033;46.310;11.214;2022-12-17T03:15:22;5.55;;;5.18;;
9986;SDS011;5033;46.310;11.214;2022-12-17T03:18:08;6.00;;;5.60;;
9986;SDS011;5033;46.310;11.214;2022-12-17T03:20:53;5.95;;;5.55;;
9986;SDS011;5033;46.310;11.214;2022-12-17T03:23:38;5.07;;;4.78;;
9986;SDS011;5033;46.310;11.214;2022-12-17T03:26:37;5.47;;;5.18;;
9986;SDS011;5033;46.310;11.214;2022-12-17T03:29:21;5.72;;;5.32;;
9986;SDS011;5033;46.310;11.214;2022-12-17T03:32:06;5.38;;;5.07;;
9986;SDS011;5033;46.310;11.214;2022-12-17T03:34:52;5.18;;;4.88;;
9986;SDS011;5033;46.310;11.214;2022-12-17T03:37:37;4.65;;;4.35;;
9986;SDS011;5033;46.310;11.214;2022-12-17T03:40:21;5.60;;;5.20;;
9986;SDS011;5033;46.310;11.214;2022-12-17T03:43:05;5.72;;;5.32;;
9986;SDS011;5033;46.310;11.214;2022-12-17T03:45:51;5.80;;;5.40;;
9986;SDS011;5033;46.310;11.214;2022-12-17T03:48:36;5.90;;;5.50;;
9986;SDS011;5033;46.310;11.214;2022-12-17T03:51:22;5.65;;;5.15;;
9986;SDS011;5033;46.310;11.214;2022-12-17T03:54:06;5.45;;;5.07;;
9986;SDS011;5033;46.310;11.214;2022-12-17T03:56:51;5.32;;;5.03;;
9986;SDS011;5033;46.310;11.214;2022-12-17T03:59:36;6.47;;;5.97;;
9986;SDS011;5033;46.310;11.214;2022-12-17T04:02:20;5.50;;;5.03;;
9986;SDS011;5033;46.310;11.214;2022-12-17T04:05:07;5.93;;;5.53;;
9986;SDS011;5033;46.310;11.214;2022-12-17T04:07:53;5.22;;;4.93;;
9986;SDS011;5033;46.310;11.214;2022-12-17T04:10:37;5.28;;;4.97;;
9986;SDS011;5033;46.310;11.214;2022-12-17T04:13:22;5.20;;;4.90;;
9986;SDS011;5033;46.310;11.214;2022-12-17T04:16:06;5.70;;;5.30;;
9986;SDS011;5033;46.310;11.214;2022-12-17T04:18:51;4.90;;;4.60;;
9986;SDS011;5033;46.310;11.214;2022-12-17T04:21:35;5.03;;;4.72;;
9986;SDS011;5033;46.310;11.214;2022-12-17T04:24:21;4.80;;;4.50;;
9986;SDS011;5033;46.310;11.214;2022-12-17T04:27:05;5.03;;;4.72;;
9986;SDS011;5033;46.310;11.214;2022-12-17T04:29:50;5.40;;;5.07;;
9986;SDS011;5033;46.310;11.214;2022-12-17T04:32:30;5.25;;;4.95;;
9986;SDS011;5033;46.310;11.214;2022-12-17T04:35:15;5.40;;;5.10;;
9986;SDS011;5033;46.310;11.214;2022-12-17T04:38:00;5.25;;;4.95;;
9986;SDS011;5033;46.310;11.214;2022-12-17T04:40:46;5.25;;;4.90;;
9986;SDS011;5033;46.310;11.214;2022-12-17T04:43:30;4.88;;;4.57;;
9986;SDS011;5033;46.310;11.214;2022-12-17T04:46:16;5.32;;;4.93;;
9986;SDS011;5033;46.310;11.214;2022-12-17T04:49:00;4.65;;;4.35;;
9986;SDS011;5033;46.310;11.214;2022-12-17T04:51:47;4.88;;;4.57;;
9986;SDS011;5033;46.310;11.214;2022-12-17T04:54:32;4.72;;;4.43;;
9986;SDS011;5033;46.310;11.214;2022-12-17T04:57:18;5.00;;;4.70;;
9986;SDS011;5033;46.310;11.214;2022-12-17T05:00:02;5.85;;;5.45;;
9986;SDS011;5033;46.310;11.214;2022-12-17T05:02:47;5.63;;;5.28;;
9986;SDS011;5033;46.310;11.214;2022-12-17T05:05:32;5.68;;;5.28;;
9986;SDS011;5033;46.310;11.214;2022-12-17T05:08:16;5.72;;;5.32;;
9986;SDS011;5033;46.310;11.214;2022-12-17T05:11:01;5.30;;;5.00;;
9986;SDS011;5033;46.310;11.214;2022-12-17T05:13:47;4.88;;;4.57;;
9986;SDS011;5033;46.310;11.214;2022-12-17T05:16:32;5.20;;;4.90;;
9986;SDS011;5033;46.310;11.214;2022-12-17T05:19:16;5.22;;;4.82;;
9986;SDS011;5033;46.310;11.214;2022-12-17T05:22:01;5.65;;;5.25;;
9986;SDS011;5033;46.310;11.214;2022-12-17T05:24:45;5.13;;;4.82;;
9986;SDS011;5033;46.310;11.214;2022-12-17T05:27:30;5.53;;;5.13;;
9986;SDS011;5033;46.310;11.214;2022-12-17T05:30:16;5.50;;;5.20;;
9986;SDS011;5033;46.310;11.214;2022-12-17T05:33:08;5.22;;;4.85;;
9986;SDS011;5033;46.310;11.214;2022-12-17T05:35:53;5.13;;;4.82;;
9986;SDS011;5033;46.310;11.214;2022-12-17T05:38:37;5.15;;;4.85;;
9986;SDS011;5033;46.310;11.214;2022-12-17T05:41:22;4.78;;;4.47;;
9986;SDS011;5033;46.310;11.214;2022-12-17T05:44:06;4.85;;;4.57;;
9986;SDS011;5033;46.310;11.214;2022-12-17T05:46:52;5.05;;;4.75;;
9986;SDS011;5033;46.310;11.214;2022-12-17T05:49:36;4.63;;;4.43;;
9986;SDS011;5033;46.310;11.214;2022-12-17T05:52:21;4.20;;;4.00;;
9986;SDS011;5033;46.310;11.214;2022-12-17T05:55:06;4.47;;;4.28;;
9986;SDS011;5033;46.310;11.214;2022-12-17T05:57:50;5.00;;;4.70;;
9986;SDS011;5033;46.310;11.214;2022-12-17T06:00:35;4.80;;;4.50;;
9986;SDS011;5033;46.310;11.214;2022-12-17T06:03:20;4.55;;;4.25;;
9986;SDS011;5033;46.310;11.214;2022-12-17T06:06:05;4.05;;;3.85;;
9986;SDS011;5033;46.310;11.214;2022-12-17T06:08:49;4.00;;;3.80;;
9986;SDS011;5033;46.310;11.214;2022-12-17T06:11:34;4.68;;;4.45;;
9986;SDS011;5033;46.310;11.214;2022-12-17T06:14:18;4.00;;;3.80;;
9986;SDS011;5033;46.310;11.214;2022-12-17T06:17:03;4.10;;;3.90;;
9986;SDS011;5033;46.310;11.214;2022-12-17T06:19:49;4.53;;;4.22;;
9986;SDS011;5033;46.310;11.214;2022-12-17T06:22:33;4.28;;;4.07;;
9986;SDS011;5033;46.310;11.214;2022-12-17T06:25:17;4.68;;;4.38;;
9986;SDS011;5033;46.310;11.214;2022-12-17T06:28:01;4.70;;;4.50;;
9986;SDS011;5033;46.310;11.214;2022-12-17T06:30:48;4.60;;;4.30;;
9986;SDS011;5033;46.310;11.214;2022-12-17T06:33:34;4.13;;;3.92;;
9986;SDS011;5033;46.310;11.214;2022-12-17T06:36:20;4.80;;;4.50;;
9986;SDS011;5033;46.310;11.214;2022-12-17T06:39:04;4.55;;;4.25;;
9986;SDS011;5033;46.310;11.214;2022-12-17T06:41:49;4.82;;;4.40;;
9986;SDS011;5033;46.310;11.214;2022-12-17T06:44:33;5.40;;;5.00;;
9986;SDS011;5033;46.310;11.214;2022-12-17T06:47:18;4.65;;;4.35;;
9986;SDS011;5033;46.310;11.214;2022-12-17T06:50:03;4.90;;;4.60;;
9986;SDS011;5033;46.310;11.214;2022-12-17T06:52:55;5.00;;;4.70;;
9986;SDS011;5033;46.310;11.214;2022-12-17T06:55:41;5.28;;;4.93;;
9986;SDS011;5033;46.310;11.214;2022-12-17T06:58:25;4.53;;;4.18;;
9986;SDS011;5033;46.310;11.214;2022-12-17T07:01:24;4.07;;;3.88;;
9986;SDS011;5033;46.310;11.214;2022-12-17T07:04:09;4.03;;;3.83;;
9986;SDS011;5033;46.310;11.214;2022-12-17T07:06:53;4.65;;;4.35;;
9986;SDS011;5033;46.310;11.214;2022-12-17T07:09:43;4.18;;;3.97;;
9986;SDS011;5033;46.310;11.214;2022-12-17T07:12:28;4.38;;;4.07;;
9986;SDS011;5033;46.310;11.214;2022-12-17T07:15:12;4.30;;;4.10;;
9986;SDS011;5033;46.310;11.214;2022-12-17T07:17:57;4.38;;;4.18;;
9986;SDS011;5033;46.310;11.214;2022-12-17T07:20:43;3.95;;;3.65;;
9986;SDS011;5033;46.310;11.214;2022-12-17T07:23:29;4.38;;;4.18;;
9986;SDS011;5033;46.310;11.214;2022-12-17T07:26:15;3.90;;;3.70;;
9986;SDS011;5033;46.310;11.214;2022-12-17T07:29:00;3.88;;;3.67;;
9986;SDS011;5033;46.310;11.214;2022-12-17T07:31:44;4.30;;;4.05;;
9986;SDS011;5033;46.310;11.214;2022-12-17T07:34:29;4.10;;;3.90;;
9986;SDS011;5033;46.310;11.214;2022-12-17T07:37:14;3.95;;;3.75;;
9986;SDS011;5033;46.310;11.214;2022-12-17T07:39:58;3.75;;;3.55;;
9986;SDS011;5033;46.310;11.214;2022-12-17T07:42:44;3.55;;;3.42;;
9986;SDS011;5033;46.310;11.214;2022-12-17T07:45:29;3.60;;;3.40;;
9986;SDS011;5033;46.310;11.214;2022-12-17T07:48:13;3.30;;;3.20;;
9986;SDS011;5033;46.310;11.214;2022-12-17T07:50:58;4.07;;;3.88;;
9986;SDS011;5033;46.310;11.214;2022-12-17T07:53:43;4.07;;;3.88;;
9986;SDS011;5033;46.310;11.214;2022-12-17T07:56:27;4.13;;;3.92;;
9986;SDS011;5033;46.310;11.214;2022-12-17T07:59:14;3.97;;;3.78;;
9986;SDS011;5033;46.310;11.214;2022-12-17T08:01:58;4.40;;;4.10;;
9986;SDS011;5033;46.310;11.214;2022-12-17T08:04:43;4.25;;;4.05;;
9986;SDS011;5033;46.310;11.214;2022-12-17T08:07:27;4.53;;;4.30;;
9986;SDS011;5033;46.310;11.214;2022-12-17T08:10:11;4.20;;;3.90;;
9986;SDS011;5033;46.310;11.214;2022-12-17T08:12:57;4.57;;;4.28;;
9986;SDS011;5033;46.310;11.214;2022-12-17T08:15:44;4.80;;;4.50;;
9986;SDS011;5033;46.310;11.214;2022-12-17T08:18:29;5.13;;;4.82;;
9986;SDS011;5033;46.310;11.214;2022-12-17T08:21:14;5.28;;;4.88;;
9986;SDS011;5033;46.310;11.214;2022-12-17T08:23:59;6.82;;;6.15;;
9986;SDS011;5033;46.310;11.214;2022-12-17T08:26:43;7.07;;;6.47;;
9986;SDS011;5033;46.310;11.214;2022-12-17T08:29:28;5.30;;;4.90;;
9986;SDS011;5033;46.310;11.214;2022-12-17T08:32:14;4.95;;;4.65;;
9986;SDS011;5033;46.310;11.214;2022-12-17T08:34:59;4.93;;;4.53;;
9986;SDS011;5033;46.310;11.214;2022-12-17T08:37:43;5.55;;;5.07;;
9986;SDS011;5033;46.310;11.214;2022-12-17T08:40:27;4.68;;;4.28;;
9986;SDS011;5033;46.310;11.214;2022-12-17T08:43:12;5.63;;;5.22;;
9986;SDS011;5033;46.310;11.214;2022-12-17T08:45:57;5.38;;;4.97;;
9986;SDS011;5033;46.310;11.214;2022-12-17T08:48:44;5.03;;;4.63;;
9986;SDS011;5033;46.310;11.214;2022-12-17T08:51:29;6.10;;;5.60;;
9986;SDS011;5033;46.310;11.214;2022-12-17T08:54:14;6.40;;;5.90;;
9986;SDS011;5033;46.310;11.214;2022-12-17T08:56:58;6.63;;;6.03;;
9986;SDS011;5033;46.310;11.214;2022-12-17T08:59:43;5.18;;;4.78;;
9986;SDS011;5033;46.310;11.214;2022-12-17T09:02:27;5.18;;;4.78;;
9986;SDS011;5033;46.310;11.214;2022-12-17T09:05:14;5.78;;;5.35;;
9986;SDS011;5033;46.310;11.214;2022-12-17T09:07:59;5.07;;;4.57;;
9986;SDS011;5033;46.310;11.214;2022-12-17T09:10:44;4.18;;;3.88;;
9986;SDS011;5033;46.310;11.214;2022-12-17T09:13:29;4.10;;;3.80;;
9986;SDS011;5033;46.310;11.214;2022-12-17T09:16:13;4.00;;;3.70;;
9986;SDS011;5033;46.310;11.214;2022-12-17T09:18:58;5.22;;;4.72;;
9986;SDS011;5033;46.310;11.214;2022-12-17T09:21:44;4.57;;;4.18;;
9986;SDS011;5033;46.310;11.214;2022-12-17T09:24:29;4.20;;;3.80;;
9986;SDS011;5033;46.310;11.214;2022-12-17T09:27:13;4.18;;;3.55;;
9986;SDS011;5033;46.310;11.214;2022-12-17T09:29:58;4.45;;;4.15;;
9986;SDS011;5033;46.310;11.214;2022-12-17T09:32:43;3.25;;;3.05;;
9986;SDS011;5033;46.310;11.214;2022-12-17T09:35:27;3.67;;;3.38;;
9986;SDS011;5033;46.310;11.214;2022-12-17T09:38:14;4.53;;;4.13;;
9986;SDS011;5033;46.310;11.214;2022-12-17T09:40:59;4.07;;;3.78;;
9986;SDS011;5033;46.310;11.214;2022-12-17T09:43:50;3.67;;;3.47;;
9986;SDS011;5033;46.310;11.214;2022-12-17T09:46:42;4.50;;;4.20;;
9986;SDS011;5033;46.310;11.214;2022-12-17T09:49:34;4.03;;;3.72;;
9986;SDS011;5033;46.310;11.214;2022-12-17T09:52:21;3.65;;;3.38;;
9986;SDS011;5033;46.310;11.214;2022-12-17T09:58:15;3.75;;;3.35;;
9986;SDS011;5033;46.310;11.214;2022-12-17T10:01:03;3.30;;;3.10;;
9986;SDS011;5033;46.310;11.214;2022-12-17T10:03:48;3.92;;;3.63;;
9986;SDS011;5033;46.310;11.214;2022-12-17T10:06:33;3.58;;;3.30;;
9986;SDS011;5033;46.310;11.214;2022-12-17T10:09:18;5.18;;;4.78;;
9986;SDS011;5033;46.310;11.214;2022-12-17T10:12:11;4.00;;;3.70;;
9986;SDS011;5033;46.310;11.214;2022-12-17T10:14:59;3.35;;;3.05;;
9986;SDS011;5033;46.310;11.214;2022-12-17T10:17:44;3.33;;;3.13;;
9986;SDS011;5033;46.310;11.214;2022-12-17T10:20:29;2.97;;;2.78;;
9986;SDS011;5033;46.310;11.214;2022-12-17T10:23:23;3.50;;;3.20;;
9986;SDS011;5033;46.310;11.214;2022-12-17T10:26:08;3.63;;;3.42;;
9986;SDS011;5033;46.310;11.214;2022-12-17T10:29:02;3.20;;;3.00;;
9986;SDS011;5033;46.310;11.214;2022-12-17T10:31:49;5.80;;;5.40;;
9986;SDS011;5033;46.310;11.214;2022-12-17T10:34:34;5.88;;;5.47;;
9986;SDS011;5033;46.310;11.214;2022-12-17T10:37:20;4.20;;;3.70;;
9986;SDS011;5033;46.310;11.214;2022-12-17T10:40:12;3.72;;;3.53;;
9986;SDS011;5033;46.310;11.214;2022-12-17T10:43:03;3.38;;;3.17;;
9986;SDS011;5033;46.310;11.214;2022-12-17T10:46:04;3.00;;;2.80;;
9986;SDS011;5033;46.310;11.214;2022-12-17T10:48:49;3.40;;;3.20;;
9986;SDS011;5033;46.310;11.214;2022-12-17T10:51:34;3.70;;;3.40;;
9986;SDS011;5033;46.310;11.214;2022-12-17T10:54:21;4.65;;;4.25;;
9986;SDS011;5033;46.310;11.214;2022-12-17T10:57:08;4.03;;;3.72;;
9986;SDS011;5033;46.310;11.214;2022-12-17T11:00:23;3.58;;;3.35;;
9986;SDS011;5033;46.310;11.214;2022-12-17T11:03:23;3.38;;;3.13;;
9986;SDS011;5033;46.310;11.214;2022-12-17T11:06:10;3.10;;;2.90;;
9986;SDS011;5033;46.310;11.214;2022-12-17T11:08:57;5.68;;;3.83;;
9986;SDS011;5033;46.310;11.214;2022-12-17T11:11:44;6.00;;;5.10;;
9986;SDS011;5033;46.310;11.214;2022-12-17T11:14:30;5.18;;;4.45;;
9986;SDS011;5033;46.310;11.214;2022-12-17T11:17:29;4.03;;;3.72;;
9986;SDS011;5033;46.310;11.214;2022-12-17T11:20:19;4.05;;;3.75;;
9986;SDS011;5033;46.310;11.214;2022-12-17T11:23:07;4.20;;;3.80;;
9986;SDS011;5033;46.310;11.214;2022-12-17T11:26:03;3.58;;;3.28;;
9986;SDS011;5033;46.310;11.214;2022-12-17T11:28:52;4.18;;;3.88;;
9986;SDS011;5033;46.310;11.214;2022-12-17T11:31:55;4.65;;;4.25;;
9986;SDS011;5033;46.310;11.214;2022-12-17T11:35:06;3.70;;;3.40;;
9986;SDS011;5033;46.310;11.214;2022-12-17T11:38:03;3.67;;;3.38;;
9986;SDS011;5033;46.310;11.214;2022-12-17T11:41:01;3.85;;;3.55;;
9986;SDS011;5033;46.310;11.214;2022-12-17T11:43:54;3.30;;;3.05;;
9986;SDS011;5033;46.310;11.214;2022-12-17T11:46:46;3.42;;;3.13;;
9986;SDS011;5033;46.310;11.214;2022-12-17T11:49:55;3.00;;;2.80;;
9986;SDS011;5033;46.310;11.214;2022-12-17T11:52:51;3.15;;;2.90;;
9986;SDS011;5033;46.310;11.214;2022-12-17T11:55:43;4.82;;;4.43;;
9986;SDS011;5033;46.310;11.214;2022-12-17T11:58:35;5.80;;;5.20;;
9986;SDS011;5033;46.310;11.214;2022-12-17T12:01:25;4.68;;;4.28;;
9986;SDS011;5033;46.310;11.214;2022-12-17T12:04:19;3.50;;;3.25;;
9986;SDS011;5033;46.310;11.214;2022-12-17T12:07:15;3.17;;;2.92;;
9986;SDS011;5033;46.310;11.214;2022-12-17T12:10:04;2.83;;;2.63;;
9986;SDS011;5033;46.310;11.214;2022-12-17T12:12:57;2.55;;;2.35;;
9986;SDS011;5033;46.310;11.214;2022-12-17T12:15:48;2.60;;;2.40;;
9986;SDS011;5033;46.310;11.214;2022-12-17T12:18:45;2.95;;;2.75;;
9986;SDS011;5033;46.310;11.214;2022-12-17T12:21:39;3.15;;;2.95;;
9986;SDS011;5033;46.310;11.214;2022-12-17T12:24:37;2.92;;;2.72;;
9986;SDS011;5033;46.310;11.214;2022-12-17T12:27:35;2.70;;;2.50;;
9986;SDS011;5033;46.310;11.214;2022-12-17T12:30:26;3.20;;;2.88;;
9986;SDS011;5033;46.310;11.214;2022-12-17T12:33:21;3.15;;;2.95;;
9986;SDS011;5033;46.310;11.214;2022-12-17T12:36:14;2.90;;;2.70;;
9986;SDS011;5033;46.310;11.214;2022-12-17T12:39:01;3.75;;;3.45;;
9986;SDS011;5033;46.310;11.214;2022-12-17T12:41:47;3.45;;;3.10;;
9986;SDS011;5033;46.310;11.214;2022-12-17T12:44:40;4.15;;;3.65;;
9986;SDS011;5033;46.310;11.214;2022-12-17T12:47:33;3.00;;;2.80;;
9986;SDS011;5033;46.310;11.214;2022-12-17T12:50:27;3.42;;;3.10;;
9986;SDS011;5033;46.310;11.214;2022-12-17T12:53:17;3.28;;;2.97;;
9986;SDS011;5033;46.310;11.214;2022-12-17T12:56:03;3.65;;;3.05;;
9986;SDS011;5033;46.310;11.214;2022-12-17T12:58:56;3.40;;;3.10;;
9986;SDS011;5033;46.310;11.214;2022-12-17T13:01:52;2.85;;;2.65;;
9986;SDS011;5033;46.310;11.214;2022-12-17T13:04:39;3.25;;;2.80;;
9986;SDS011;5033;46.310;11.214;2022-12-17T13:07:26;3.00;;;2.80;;
9986;SDS011;5033;46.310;11.214;2022-12-17T13:09:55;3.95;;;2.80;;
9986;SDS011;5033;46.310;11.214;2022-12-17T13:12:29;2.97;;;2.78;;
9986;SDS011;5033;46.310;11.214;2022-12-17T13:17:54;4.00;;;3.70;;
9986;SDS011;5033;46.310;11.214;2022-12-17T13:20:27;3.63;;;3.33;;
9986;SDS011;5033;46.310;11.214;2022-12-17T13:23:24;3.65;;;3.35;;
9986;SDS011;5033;46.310;11.214;2022-12-17T13:26:14;3.42;;;3.13;;
9986;SDS011;5033;46.310;11.214;2022-12-17T13:28:48;4.18;;;3.60;;
9986;SDS011;5033;46.310;11.214;2022-12-17T13:31:27;4.18;;;3.78;;
9986;SDS011;5033;46.310;11.214;2022-12-17T13:33:58;3.92;;;3.58;;
9986;SDS011;5033;46.310;11.214;2022-12-17T13:36:43;4.57;;;4.18;;
9986;SDS011;5033;46.310;11.214;2022-12-17T13:39:30;3.85;;;3.55;;
9986;SDS011;5033;46.310;11.214;2022-12-17T13:42:13;3.90;;;3.50;;
9986;SDS011;5033;46.310;11.214;2022-12-17T13:44:44;5.68;;;3.50;;
9986;SDS011;5033;46.310;11.214;2022-12-17T13:47:19;3.90;;;3.60;;
9986;SDS011;5033;46.310;11.214;2022-12-17T13:49:51;2.67;;;2.47;;
9986;SDS011;5033;46.310;11.214;2022-12-17T13:52:22;2.85;;;2.65;;
9986;SDS011;5033;46.310;11.214;2022-12-17T13:54:50;2.95;;;2.75;;
9986;SDS011;5033;46.310;11.214;2022-12-17T13:57:20;3.00;;;2.67;;
9986;SDS011;5033;46.310;11.214;2022-12-17T13:59:49;2.88;;;2.67;;
9986;SDS011;5033;46.310;11.214;2022-12-17T14:02:22;2.53;;;2.33;;
9986;SDS011;5033;46.310;11.214;2022-12-17T14:04:50;2.75;;;2.55;;
9986;SDS011;5033;46.310;11.214;2022-12-17T14:07:19;2.60;;;2.50;;
9986;SDS011;5033;46.310;11.214;2022-12-17T14:09:51;2.88;;;2.67;;
9986;SDS011;5033;46.310;11.214;2022-12-17T14:12:21;3.00;;;2.80;;
9986;SDS011;5033;46.310;11.214;2022-12-17T14:14:50;2.85;;;2.65;;
9986;SDS011;5033;46.310;11.214;2022-12-17T14:17:21;3.35;;;3.15;;
9986;SDS011;5033;46.310;11.214;2022-12-17T14:19:53;3.28;;;3.05;;
9986;SDS011;5033;46.310;11.214;2022-12-17T14:22:28;3.53;;;3.33;;
9986;SDS011;5033;46.310;11.214;2022-12-17T14:24:59;3.72;;;3.42;;
9986;SDS011;5033;46.310;11.214;2022-12-17T14:27:29;3.03;;;2.83;;
9986;SDS011;5033;46.310;11.214;2022-12-17T14:29:58;3.65;;;3.35;;
9986;SDS011;5033;46.310;11.214;2022-12-17T14:32:29;4.88;;;4.40;;
9986;SDS011;5033;46.310;11.214;2022-12-17T14:35:00;4.63;;;4.22;;
9986;SDS011;5033;46.310;11.214;2022-12-17T14:37:29;4.10;;;3.80;;
9986;SDS011;5033;46.310;11.214;2022-12-17T14:39:59;4.82;;;4.43;;
9986;SDS011;5033;46.310;11.214;2022-12-17T14:42:28;4.38;;;3.97;;
9986;SDS011;5033;46.310;11.214;2022-12-17T14:44:57;7.03;;;6.15;;
9986;SDS011;5033;46.310;11.214;2022-12-17T14:47:26;15.00;;;10.80;;
9986;SDS011;5033;46.310;11.214;2022-12-17T14:50:03;13.35;;;9.85;;
9986;SDS011;5033;46.310;11.214;2022-12-17T14:52:35;11.85;;;8.65;;
9986;SDS011;5033;46.310;11.214;2022-12-17T14:55:24;12.40;;;8.15;;
9986;SDS011;5033;46.310;11.214;2022-12-17T14:58:05;12.55;;;9.18;;
9986;SDS011;5033;46.310;11.214;2022-12-17T15:00:49;13.80;;;11.13;;
9986;SDS011;5033;46.310;11.214;2022-12-17T15:03:20;16.15;;;12.38;;
9986;SDS011;5033;46.310;11.214;2022-12-17T15:05:51;12.25;;;10.05;;
9986;SDS011;5033;46.310;11.214;2022-12-17T15:08:22;12.75;;;8.98;;
9986;SDS011;5033;46.310;11.214;2022-12-17T15:10:50;10.80;;;8.90;;
9986;SDS011;5033;46.310;11.214;2022-12-17T15:13:17;9.27;;;6.65;;
9986;SDS011;5033;46.310;11.214;2022-12-17T15:15:45;6.65;;;6.05;;
9986;SDS011;5033;46.310;11.214;2022-12-17T15:18:13;6.10;;;4.70;;
9986;SDS011;5033;46.310;11.214;2022-12-17T15:20:40;5.32;;;4.82;;
9986;SDS011;5033;46.310;11.214;2022-12-17T15:23:09;4.30;;;3.85;;
9986;SDS011;5033;46.310;11.214;2022-12-17T15:25:43;4.60;;;4.30;;
9986;SDS011;5033;46.310;11.214;2022-12-17T15:28:12;4.63;;;4.30;;
9986;SDS011;5033;46.310;11.214;2022-12-17T15:30:39;4.20;;;3.90;;
9986;SDS011;5033;46.310;11.214;2022-12-17T15:33:07;4.22;;;3.83;;
9986;SDS011;5033;46.310;11.214;2022-12-17T15:35:37;7.82;;;6.60;;
9986;SDS011;5033;46.310;11.214;2022-12-17T15:38:06;22.48;;;15.95;;
9986;SDS011;5033;46.310;11.214;2022-12-17T15:40:35;18.45;;;13.60;;
9986;SDS011;5033;46.310;11.214;2022-12-17T15:43:07;14.00;;;11.05;;
9986;SDS011;5033;46.310;11.214;2022-12-17T15:45:36;9.63;;;8.63;;
9986;SDS011;5033;46.310;11.214;2022-12-17T15:48:05;8.57;;;7.68;;
9986;SDS011;5033;46.310;11.214;2022-12-17T15:50:32;7.30;;;6.60;;
9986;SDS011;5033;46.310;11.214;2022-12-17T15:53:00;6.90;;;6.30;;
9986;SDS011;5033;46.310;11.214;2022-12-17T15:55:27;6.00;;;5.50;;
9986;SDS011;5033;46.310;11.214;2022-12-17T15:57:55;5.18;;;4.75;;
9986;SDS011;5033;46.310;11.214;2022-12-17T16:00:24;4.95;;;4.55;;
9986;SDS011;5033;46.310;11.214;2022-12-17T16:02:51;4.50;;;4.20;;
9986;SDS011;5033;46.310;11.214;2022-12-17T16:05:19;4.70;;;4.40;;
9986;SDS011;5033;46.310;11.214;2022-12-17T16:07:47;4.88;;;4.57;;
9986;SDS011;5033;46.310;11.214;2022-12-17T16:10:14;4.78;;;4.47;;
9986;SDS011;5033;46.310;11.214;2022-12-17T16:12:42;5.35;;;4.93;;
9986;SDS011;5033;46.310;11.214;2022-12-17T16:15:10;4.78;;;4.40;;
9986;SDS011;5033;46.310;11.214;2022-12-17T16:17:40;5.03;;;4.72;;
9986;SDS011;5033;46.310;11.214;2022-12-17T16:20:08;4.97;;;4.57;;
9986;SDS011;5033;46.310;11.214;2022-12-17T16:22:36;5.20;;;4.75;;
9986;SDS011;5033;46.310;11.214;2022-12-17T16:25:04;5.50;;;5.10;;
9986;SDS011;5033;46.310;11.214;2022-12-17T16:27:32;5.25;;;4.85;;
9986;SDS011;5033;46.310;11.214;2022-12-17T16:29:59;5.43;;;5.03;;
9986;SDS011;5033;46.310;11.214;2022-12-17T16:32:27;4.70;;;4.40;;
9986;SDS011;5033;46.310;11.214;2022-12-17T16:34:56;4.55;;;4.25;;
9986;SDS011;5033;46.310;11.214;2022-12-17T16:37:23;4.57;;;4.28;;
9986;SDS011;5033;46.310;11.214;2022-12-17T16:39:51;5.25;;;4.85;;
9986;SDS011;5033;46.310;11.214;2022-12-17T16:42:19;5.70;;;5.18;;
9986;SDS011;5033;46.310;11.214;2022-12-17T16:44:46;5.88;;;5.28;;